Impacts METAR Board
IDs:

KMEM - Memphis Intl, TN, US

Updated at: 1300 UTC 15 Jul 2020
Potential Impact None Slight Moderate High
Time 15/01Z 15/02Z 15/03Z 15/04Z 15/05Z 15/06Z 15/07Z 15/08Z 15/09Z 15/10Z 15/11Z 15/12Z 15/13Z
Temp87 88 86 86 84 83 82 79 80 80 79 80 82
Dewpt71 71 69 68 68 69 69 69 69 69 69 70 72
Altim29.97 29.97 29.98 29.98 29.98 29.97 29.97 29.96 29.96 29.97 29.99 30.01 30.02
VIS10 10 10 10 10 10 10 10 10 10 10 10 10
CIG-- -- -- -- -- -- -- -- 60 60 -- -- --
CoverSCTFEWCLRFEWCLRFEWFEWFEWBKNBKNFEWSCTSCT
FltCatVFRVFRVFRVFRVFRVFRVFRVFRVFRVFRVFRVFRVFR
WX--------------------------
WDir17015014015001501501701701800160180
WSpd9 6 5 7 6 8 6 5 7 8 0 4 5
WGst-- -- -- -- -- -- -- -- -- -- -- -- --
Raw hourly METARs
KMEM 150054Z 17009KT 10SM FEW055 FEW150 SCT250 31/22 A2997 RMK AO2 SLP142 T03060217
KMEM 150154Z 15006KT 10SM FEW150 31/22 A2997 RMK AO2 SLP143 T03110217
KMEM 150254Z 14005KT 10SM CLR 30/21 A2998 RMK AO2 SLP147 T03000206 53005
KMEM 150354Z 15007KT 10SM FEW250 30/20 A2998 RMK AO2 SLP148 T03000200
KMEM 150454Z VRB06KT 10SM CLR 29/20 A2998 RMK AO2 SLP147 T02890200
KMEM 150554Z 15008KT 10SM FEW050 28/21 A2997 RMK AO2 SLP143 T02830206 10322 20283 403440244 58004
KMEM 150654Z 15006KT 10SM FEW055 28/21 A2997 RMK AO2 SLP142 T02780206
KMEM 150754Z 17005KT 10SM FEW055 26/21 A2996 RMK AO2 SLP141 T02610206
KMEM 150854Z 17007KT 10SM BKN060 27/21 A2996 RMK AO2 SLP139 T02670206 58003
KMEM 150954Z 18008KT 10SM BKN060 27/21 A2997 RMK AO2 SLP143 T02670206
KMEM 151054Z 00000KT 10SM FEW060 FEW250 26/21 A2999 RMK AO2 SLP150 T02610206
KMEM 151154Z 16004KT 10SM FEW060 SCT250 27/21 A3001 RMK AO2 SLP157 T02670211 10283 20256 53018
KMEM 151254Z 18005KT 10SM FEW039 SCT060 SCT250 28/22 A3002 RMK AO2 SLP160 T02780222



Page loaded:  13:05 UTC  |   06:05 AM Pacific  |   07:05 AM Mountain  |   08:05 AM Central  |   09:05 AM Eastern

 

ADVISORIES

FORECASTS

FORECASTS

OBSERVATIONS

USER TOOLS

ABOUT US